sensor_id;sensor_type;location;lat;lon;timestamp;temperature;humidity
37560;DHT22;23398;50.928;7.084;2023-02-07T00:01:11;1.50;81.90
37560;DHT22;23398;50.928;7.084;2023-02-07T00:03:37;1.40;82.00
37560;DHT22;23398;50.928;7.084;2023-02-07T00:06:15;1.40;82.30
37560;DHT22;23398;50.928;7.084;2023-02-07T00:08:41;1.40;83.00
37560;DHT22;23398;50.928;7.084;2023-02-07T00:11:09;1.40;82.40
37560;DHT22;23398;50.928;7.084;2023-02-07T00:13:36;1.30;82.40
37560;DHT22;23398;50.928;7.084;2023-02-07T00:16:03;1.50;82.50
37560;DHT22;23398;50.928;7.084;2023-02-07T00:18:30;1.30;82.60
37560;DHT22;23398;50.928;7.084;2023-02-07T00:21:04;1.30;82.70
37560;DHT22;23398;50.928;7.084;2023-02-07T00:23:31;1.30;83.40
37560;DHT22;23398;50.928;7.084;2023-02-07T00:25:56;1.30;83.00
37560;DHT22;23398;50.928;7.084;2023-02-07T00:28:22;1.20;82.90
37560;DHT22;23398;50.928;7.084;2023-02-07T00:30:48;1.30;83.00
37560;DHT22;23398;50.928;7.084;2023-02-07T00:33:13;1.20;82.90
37560;DHT22;23398;50.928;7.084;2023-02-07T00:35:39;1.20;82.70
37560;DHT22;23398;50.928;7.084;2023-02-07T00:38:05;1.20;82.70
37560;DHT22;23398;50.928;7.084;2023-02-07T00:40:30;1.20;82.60
37560;DHT22;23398;50.928;7.084;2023-02-07T00:42:56;1.10;82.70
37560;DHT22;23398;50.928;7.084;2023-02-07T00:45:21;1.10;83.80
37560;DHT22;23398;50.928;7.084;2023-02-07T00:47:47;1.10;83.40
37560;DHT22;23398;50.928;7.084;2023-02-07T00:50:13;1.10;83.80
37560;DHT22;23398;50.928;7.084;2023-02-07T00:52:38;1.10;84.20
37560;DHT22;23398;50.928;7.084;2023-02-07T00:55:04;1.10;84.50
37560;DHT22;23398;50.928;7.084;2023-02-07T00:57:30;1.10;84.90
37560;DHT22;23398;50.928;7.084;2023-02-07T00:59:55;1.20;85.30
37560;DHT22;23398;50.928;7.084;2023-02-07T01:02:21;1.20;85.40
37560;DHT22;23398;50.928;7.084;2023-02-07T01:04:47;1.20;85.50
37560;DHT22;23398;50.928;7.084;2023-02-07T01:07:12;1.30;85.60
37560;DHT22;23398;50.928;7.084;2023-02-07T01:09:38;1.20;85.40
37560;DHT22;23398;50.928;7.084;2023-02-07T01:12:04;1.30;85.30
37560;DHT22;23398;50.928;7.084;2023-02-07T01:14:30;1.30;84.90
37560;DHT22;23398;50.928;7.084;2023-02-07T01:16:55;1.30;84.30
37560;DHT22;23398;50.928;7.084;2023-02-07T01:19:21;1.30;83.60
37560;DHT22;23398;50.928;7.084;2023-02-07T01:21:46;1.20;82.80
37560;DHT22;23398;50.928;7.084;2023-02-07T01:24:12;1.20;82.30
37560;DHT22;23398;50.928;7.084;2023-02-07T01:26:38;1.10;81.90
37560;DHT22;23398;50.928;7.084;2023-02-07T01:29:05;1.10;81.90
37560;DHT22;23398;50.928;7.084;2023-02-07T01:31:31;1.10;82.30
37560;DHT22;23398;50.928;7.084;2023-02-07T01:33:57;1.10;82.90
37560;DHT22;23398;50.928;7.084;2023-02-07T01:36:25;1.00;83.10
37560;DHT22;23398;50.928;7.084;2023-02-07T01:38:52;1.00;83.40
37560;DHT22;23398;50.928;7.084;2023-02-07T01:41:19;1.10;83.70
37560;DHT22;23398;50.928;7.084;2023-02-07T01:44:07;1.10;83.70
37560;DHT22;23398;50.928;7.084;2023-02-07T01:46:52;1.20;84.60
37560;DHT22;23398;50.928;7.084;2023-02-07T01:49:24;1.10;83.10
37560;DHT22;23398;50.928;7.084;2023-02-07T01:51:56;1.00;82.60
37560;DHT22;23398;50.928;7.084;2023-02-07T01:54:25;1.00;82.30
37560;DHT22;23398;50.928;7.084;2023-02-07T01:56:57;0.90;82.20
37560;DHT22;23398;50.928;7.084;2023-02-07T01:59:24;0.90;82.30
37560;DHT22;23398;50.928;7.084;2023-02-07T02:01:51;0.80;82.30
37560;DHT22;23398;50.928;7.084;2023-02-07T02:04:16;0.80;82.30
37560;DHT22;23398;50.928;7.084;2023-02-07T02:06:42;0.80;82.30
37560;DHT22;23398;50.928;7.084;2023-02-07T02:09:10;0.80;82.40
37560;DHT22;23398;50.928;7.084;2023-02-07T02:14:36;0.80;83.60
37560;DHT22;23398;50.928;7.084;2023-02-07T02:17:08;0.80;83.00
37560;DHT22;23398;50.928;7.084;2023-02-07T02:22:42;0.70;82.60
37560;DHT22;23398;50.928;7.084;2023-02-07T02:26:08;0.60;82.00
37560;DHT22;23398;50.928;7.084;2023-02-07T02:39:33;0.40;81.70
37560;DHT22;23398;50.928;7.084;2023-02-07T02:42:02;0.40;82.20
37560;DHT22;23398;50.928;7.084;2023-02-07T02:47:02;0.30;82.30
37560;DHT22;23398;50.928;7.084;2023-02-07T02:49:31;0.30;82.20
37560;DHT22;23398;50.928;7.084;2023-02-07T02:51:58;0.30;82.30
37560;DHT22;23398;50.928;7.084;2023-02-07T02:54:31;0.30;82.40
37560;DHT22;23398;50.928;7.084;2023-02-07T02:57:32;0.20;82.90
37560;DHT22;23398;50.928;7.084;2023-02-07T03:03:49;0.20;83.70
37560;DHT22;23398;50.928;7.084;2023-02-07T03:07:01;0.20;83.60
37560;DHT22;23398;50.928;7.084;2023-02-07T03:12:33;0.20;83.10
37560;DHT22;23398;50.928;7.084;2023-02-07T03:15:23;0.20;82.70
37560;DHT22;23398;50.928;7.084;2023-02-07T03:18:21;0.10;82.90
37560;DHT22;23398;50.928;7.084;2023-02-07T03:20:58;0.10;82.90
37560;DHT22;23398;50.928;7.084;2023-02-07T03:23:26;0.10;82.50
37560;DHT22;23398;50.928;7.084;2023-02-07T03:25:54;0.10;82.20
37560;DHT22;23398;50.928;7.084;2023-02-07T03:28:21;0.10;82.20
37560;DHT22;23398;50.928;7.084;2023-02-07T03:30:49;0.00;82.20
37560;DHT22;23398;50.928;7.084;2023-02-07T03:33:16;0.00;82.30
37560;DHT22;23398;50.928;7.084;2023-02-07T03:38:13;0.00;83.10
37560;DHT22;23398;50.928;7.084;2023-02-07T03:40:43;0.00;83.00
37560;DHT22;23398;50.928;7.084;2023-02-07T03:43:20;0.00;83.30
37560;DHT22;23398;50.928;7.084;2023-02-07T03:45:46;0.00;82.90
37560;DHT22;23398;50.928;7.084;2023-02-07T03:48:12;0.00;82.80
37560;DHT22;23398;50.928;7.084;2023-02-07T03:50:37;0.00;82.70
37560;DHT22;23398;50.928;7.084;2023-02-07T03:53:03;0.00;82.80
37560;DHT22;23398;50.928;7.084;2023-02-07T03:55:30;-0.10;82.90
37560;DHT22;23398;50.928;7.084;2023-02-07T03:57:56;-0.10;82.80
37560;DHT22;23398;50.928;7.084;2023-02-07T04:00:21;-0.10;82.60
37560;DHT22;23398;50.928;7.084;2023-02-07T04:02:47;-0.10;82.70
37560;DHT22;23398;50.928;7.084;2023-02-07T04:05:13;-0.10;82.90
37560;DHT22;23398;50.928;7.084;2023-02-07T04:07:38;-0.10;83.10
37560;DHT22;23398;50.928;7.084;2023-02-07T04:10:05;-0.10;83.40
37560;DHT22;23398;50.928;7.084;2023-02-07T04:12:30;-0.10;83.80
37560;DHT22;23398;50.928;7.084;2023-02-07T04:14:59;-0.10;84.10
37560;DHT22;23398;50.928;7.084;2023-02-07T04:17:25;-0.10;84.40
37560;DHT22;23398;50.928;7.084;2023-02-07T04:19:51;0.00;84.60
37560;DHT22;23398;50.928;7.084;2023-02-07T04:22:16;0.00;84.60
37560;DHT22;23398;50.928;7.084;2023-02-07T04:24:42;0.10;84.60
37560;DHT22;23398;50.928;7.084;2023-02-07T04:27:07;0.10;84.10
37560;DHT22;23398;50.928;7.084;2023-02-07T04:29:33;0.10;83.80
37560;DHT22;23398;50.928;7.084;2023-02-07T04:31:58;0.00;83.10
37560;DHT22;23398;50.928;7.084;2023-02-07T04:34:24;0.00;82.80
37560;DHT22;23398;50.928;7.084;2023-02-07T04:36:50;0.00;82.50
37560;DHT22;23398;50.928;7.084;2023-02-07T04:39:15;0.00;82.30
37560;DHT22;23398;50.928;7.084;2023-02-07T04:41:41;-0.10;82.20
37560;DHT22;23398;50.928;7.084;2023-02-07T04:44:06;-0.10;82.30
37560;DHT22;23398;50.928;7.084;2023-02-07T04:46:32;-0.10;82.40
37560;DHT22;23398;50.928;7.084;2023-02-07T04:48:58;-0.20;82.30
37560;DHT22;23398;50.928;7.084;2023-02-07T04:51:24;-0.20;82.20
37560;DHT22;23398;50.928;7.084;2023-02-07T04:53:50;-0.20;82.30
37560;DHT22;23398;50.928;7.084;2023-02-07T04:56:16;-0.30;82.20
37560;DHT22;23398;50.928;7.084;2023-02-07T04:58:41;-0.30;82.20
37560;DHT22;23398;50.928;7.084;2023-02-07T05:01:07;-0.30;82.10
37560;DHT22;23398;50.928;7.084;2023-02-07T05:03:32;-0.30;81.90
37560;DHT22;23398;50.928;7.084;2023-02-07T05:05:58;-0.40;81.50
37560;DHT22;23398;50.928;7.084;2023-02-07T05:08:24;-0.40;81.40
37560;DHT22;23398;50.928;7.084;2023-02-07T05:10:54;-0.50;81.20
37560;DHT22;23398;50.928;7.084;2023-02-07T05:13:20;-0.50;81.40
37560;DHT22;23398;50.928;7.084;2023-02-07T05:15:45;-0.50;81.30
37560;DHT22;23398;50.928;7.084;2023-02-07T05:18:11;-0.60;81.40
37560;DHT22;23398;50.928;7.084;2023-02-07T05:20:36;-0.60;81.40
37560;DHT22;23398;50.928;7.084;2023-02-07T05:23:02;-0.60;81.60
37560;DHT22;23398;50.928;7.084;2023-02-07T05:25:28;-0.60;81.80
37560;DHT22;23398;50.928;7.084;2023-02-07T05:27:53;-0.70;82.00
37560;DHT22;23398;50.928;7.084;2023-02-07T05:30:19;-0.70;82.10
37560;DHT22;23398;50.928;7.084;2023-02-07T05:32:45;-0.70;82.10
37560;DHT22;23398;50.928;7.084;2023-02-07T05:35:46;-0.70;82.10
37560;DHT22;23398;50.928;7.084;2023-02-07T05:38:14;-0.70;82.60
37560;DHT22;23398;50.928;7.084;2023-02-07T05:40:41;-0.70;82.10
37560;DHT22;23398;50.928;7.084;2023-02-07T05:43:07;-0.80;81.90
37560;DHT22;23398;50.928;7.084;2023-02-07T05:45:33;-0.80;82.00
37560;DHT22;23398;50.928;7.084;2023-02-07T05:47:59;-0.80;82.90
37560;DHT22;23398;50.928;7.084;2023-02-07T05:50:25;-0.80;82.40
37560;DHT22;23398;50.928;7.084;2023-02-07T05:52:51;-0.80;82.60
37560;DHT22;23398;50.928;7.084;2023-02-07T05:55:16;-0.80;82.70
37560;DHT22;23398;50.928;7.084;2023-02-07T05:57:43;-0.80;82.60
37560;DHT22;23398;50.928;7.084;2023-02-07T06:00:14;-0.80;82.50
37560;DHT22;23398;50.928;7.084;2023-02-07T06:02:40;-0.80;82.30
37560;DHT22;23398;50.928;7.084;2023-02-07T06:05:07;-0.90;82.00
37560;DHT22;23398;50.928;7.084;2023-02-07T06:07:33;-0.90;81.90
37560;DHT22;23398;50.928;7.084;2023-02-07T06:09:59;-0.90;81.90
37560;DHT22;23398;50.928;7.084;2023-02-07T06:12:24;-0.90;81.90
37560;DHT22;23398;50.928;7.084;2023-02-07T06:14:50;-1.00;81.80
37560;DHT22;23398;50.928;7.084;2023-02-07T06:17:15;-1.00;81.90
37560;DHT22;23398;50.928;7.084;2023-02-07T06:19:41;-1.00;81.90
37560;DHT22;23398;50.928;7.084;2023-02-07T06:22:07;-1.00;81.70
37560;DHT22;23398;50.928;7.084;2023-02-07T06:24:32;-1.00;81.50
37560;DHT22;23398;50.928;7.084;2023-02-07T06:26:58;-1.10;81.20
37560;DHT22;23398;50.928;7.084;2023-02-07T06:29:23;-1.10;81.20
37560;DHT22;23398;50.928;7.084;2023-02-07T06:31:49;-1.10;81.20
37560;DHT22;23398;50.928;7.084;2023-02-07T06:34:15;-1.10;81.30
37560;DHT22;23398;50.928;7.084;2023-02-07T06:36:40;-1.20;81.40
37560;DHT22;23398;50.928;7.084;2023-02-07T06:39:06;-1.20;81.40
37560;DHT22;23398;50.928;7.084;2023-02-07T06:41:31;-1.20;81.40
37560;DHT22;23398;50.928;7.084;2023-02-07T06:43:57;-1.20;81.30
37560;DHT22;23398;50.928;7.084;2023-02-07T06:46:23;-1.20;81.30
37560;DHT22;23398;50.928;7.084;2023-02-07T06:48:48;-1.20;81.30
37560;DHT22;23398;50.928;7.084;2023-02-07T06:51:14;-1.20;81.60
37560;DHT22;23398;50.928;7.084;2023-02-07T06:53:40;-1.20;82.10
37560;DHT22;23398;50.928;7.084;2023-02-07T06:56:06;-1.20;82.40
37560;DHT22;23398;50.928;7.084;2023-02-07T06:58:31;-1.20;82.70
37560;DHT22;23398;50.928;7.084;2023-02-07T07:01:00;-1.20;82.80
37560;DHT22;23398;50.928;7.084;2023-02-07T07:03:26;-1.20;83.00
37560;DHT22;23398;50.928;7.084;2023-02-07T07:05:53;-1.00;83.10
37560;DHT22;23398;50.928;7.084;2023-02-07T07:08:19;-1.10;83.10
37560;DHT22;23398;50.928;7.084;2023-02-07T07:10:45;-1.10;83.10
37560;DHT22;23398;50.928;7.084;2023-02-07T07:13:10;-1.10;83.20
37560;DHT22;23398;50.928;7.084;2023-02-07T07:15:36;-1.10;83.40
37560;DHT22;23398;50.928;7.084;2023-02-07T07:18:01;-1.10;83.70
37560;DHT22;23398;50.928;7.084;2023-02-07T07:20:27;-1.00;84.20
37560;DHT22;23398;50.928;7.084;2023-02-07T07:22:53;-1.00;84.70
37560;DHT22;23398;50.928;7.084;2023-02-07T07:25:18;-0.90;85.10
37560;DHT22;23398;50.928;7.084;2023-02-07T07:27:45;-0.90;85.40
37560;DHT22;23398;50.928;7.084;2023-02-07T07:30:11;-0.80;85.70
37560;DHT22;23398;50.928;7.084;2023-02-07T07:32:37;-0.80;85.90
37560;DHT22;23398;50.928;7.084;2023-02-07T07:35:04;-0.70;85.90
37560;DHT22;23398;50.928;7.084;2023-02-07T07:37:29;-0.60;85.70
37560;DHT22;23398;50.928;7.084;2023-02-07T07:39:55;-0.60;85.20
37560;DHT22;23398;50.928;7.084;2023-02-07T07:42:21;-0.60;84.80
37560;DHT22;23398;50.928;7.084;2023-02-07T07:44:46;-0.50;84.70
37560;DHT22;23398;50.928;7.084;2023-02-07T07:47:12;-0.50;84.60
37560;DHT22;23398;50.928;7.084;2023-02-07T07:49:38;-0.50;84.70
37560;DHT22;23398;50.928;7.084;2023-02-07T07:52:04;-0.40;85.00
37560;DHT22;23398;50.928;7.084;2023-02-07T07:54:30;-0.40;85.30
37560;DHT22;23398;50.928;7.084;2023-02-07T07:56:55;-0.40;85.70
37560;DHT22;23398;50.928;7.084;2023-02-07T07:59:21;-0.30;86.00
37560;DHT22;23398;50.928;7.084;2023-02-07T08:01:46;-0.30;86.10
37560;DHT22;23398;50.928;7.084;2023-02-07T08:04:12;-0.20;86.10
37560;DHT22;23398;50.928;7.084;2023-02-07T08:06:37;-0.10;86.30
37560;DHT22;23398;50.928;7.084;2023-02-07T08:09:03;-0.10;86.30
37560;DHT22;23398;50.928;7.084;2023-02-07T08:11:29;0.00;86.40
37560;DHT22;23398;50.928;7.084;2023-02-07T08:13:55;0.00;86.40
37560;DHT22;23398;50.928;7.084;2023-02-07T08:16:20;0.10;86.60
37560;DHT22;23398;50.928;7.084;2023-02-07T08:18:46;0.10;86.90
37560;DHT22;23398;50.928;7.084;2023-02-07T08:21:11;0.20;87.40
37560;DHT22;23398;50.928;7.084;2023-02-07T08:23:37;0.30;87.90
37560;DHT22;23398;50.928;7.084;2023-02-07T08:26:03;0.40;88.40
37560;DHT22;23398;50.928;7.084;2023-02-07T08:28:29;0.50;88.70
37560;DHT22;23398;50.928;7.084;2023-02-07T08:31:02;0.60;88.90
37560;DHT22;23398;50.928;7.084;2023-02-07T08:33:29;0.70;89.20
37560;DHT22;23398;50.928;7.084;2023-02-07T08:35:55;0.70;88.80
37560;DHT22;23398;50.928;7.084;2023-02-07T08:38:21;0.80;89.50
37560;DHT22;23398;50.928;7.084;2023-02-07T08:40:46;0.90;88.70
37560;DHT22;23398;50.928;7.084;2023-02-07T08:43:13;1.00;88.70
37560;DHT22;23398;50.928;7.084;2023-02-07T08:45:44;1.00;88.70
37560;DHT22;23398;50.928;7.084;2023-02-07T08:48:10;1.10;88.80
37560;DHT22;23398;50.928;7.084;2023-02-07T08:50:36;1.20;89.50
37560;DHT22;23398;50.928;7.084;2023-02-07T08:53:02;1.40;91.40
37560;DHT22;23398;50.928;7.084;2023-02-07T08:55:27;1.80;94.40
37560;DHT22;23398;50.928;7.084;2023-02-07T08:57:53;2.50;97.80
37560;DHT22;23398;50.928;7.084;2023-02-07T09:00:19;3.40;99.90
37560;DHT22;23398;50.928;7.084;2023-02-07T09:02:45;4.50;99.90
37560;DHT22;23398;50.928;7.084;2023-02-07T09:05:10;5.70;99.90
37560;DHT22;23398;50.928;7.084;2023-02-07T09:07:36;7.00;99.90
37560;DHT22;23398;50.928;7.084;2023-02-07T09:10:04;8.30;99.90
37560;DHT22;23398;50.928;7.084;2023-02-07T09:12:31;9.50;98.40
37560;DHT22;23398;50.928;7.084;2023-02-07T09:14:57;10.70;94.90
37560;DHT22;23398;50.928;7.084;2023-02-07T09:17:23;11.80;92.60
37560;DHT22;23398;50.928;7.084;2023-02-07T09:19:48;12.90;87.20
37560;DHT22;23398;50.928;7.084;2023-02-07T09:22:14;13.80;81.30
37560;DHT22;23398;50.928;7.084;2023-02-07T09:24:39;14.70;77.20
37560;DHT22;23398;50.928;7.084;2023-02-07T09:27:05;15.50;71.40
37560;DHT22;23398;50.928;7.084;2023-02-07T09:29:31;16.20;67.60
37560;DHT22;23398;50.928;7.084;2023-02-07T09:31:57;16.80;65.30
37560;DHT22;23398;50.928;7.084;2023-02-07T09:34:22;17.30;63.30
37560;DHT22;23398;50.928;7.084;2023-02-07T09:36:48;17.80;60.50
37560;DHT22;23398;50.928;7.084;2023-02-07T09:39:15;18.20;59.60
37560;DHT22;23398;50.928;7.084;2023-02-07T09:47:16;19.30;54.00
37560;DHT22;23398;50.928;7.084;2023-02-07T09:50:07;19.50;52.90
37560;DHT22;23398;50.928;7.084;2023-02-07T09:53:05;19.60;53.20
37560;DHT22;23398;50.928;7.084;2023-02-07T09:55:59;19.70;52.60
37560;DHT22;23398;50.928;7.084;2023-02-07T09:58:55;19.90;52.00
37560;DHT22;23398;50.928;7.084;2023-02-07T10:01:25;20.00;51.10
37560;DHT22;23398;50.928;7.084;2023-02-07T10:06:40;20.10;50.30
37560;DHT22;23398;50.928;7.084;2023-02-07T10:09:13;20.20;50.20
37560;DHT22;23398;50.928;7.084;2023-02-07T10:31:16;18.80;45.50
37560;DHT22;23398;50.928;7.084;2023-02-07T10:34:10;18.40;45.80
37560;DHT22;23398;50.928;7.084;2023-02-07T10:36:39;17.80;43.80
37560;DHT22;23398;50.928;7.084;2023-02-07T10:41:40;16.70;43.90
37560;DHT22;23398;50.928;7.084;2023-02-07T10:44:10;16.20;44.80
37560;DHT22;23398;50.928;7.084;2023-02-07T10:46:37;15.70;44.60
37560;DHT22;23398;50.928;7.084;2023-02-07T10:49:05;15.10;44.20
37560;DHT22;23398;50.928;7.084;2023-02-07T10:51:35;14.60;44.60
37560;DHT22;23398;50.928;7.084;2023-02-07T10:54:09;14.10;45.30
37560;DHT22;23398;50.928;7.084;2023-02-07T10:56:41;13.50;45.10
37560;DHT22;23398;50.928;7.084;2023-02-07T11:02:30;12.40;45.70
37560;DHT22;23398;50.928;7.084;2023-02-07T11:04:47;12.00;46.40
37560;DHT22;23398;50.928;7.084;2023-02-07T11:07:14;11.50;46.70
37560;DHT22;23398;50.928;7.084;2023-02-07T11:09:40;11.10;47.10
37560;DHT22;23398;50.928;7.084;2023-02-07T11:12:21;10.80;47.40
37560;DHT22;23398;50.928;7.084;2023-02-07T11:15:15;10.40;47.30
37560;DHT22;23398;50.928;7.084;2023-02-07T11:17:49;10.10;47.30
37560;DHT22;23398;50.928;7.084;2023-02-07T11:22:53;9.60;48.50
37560;DHT22;23398;50.928;7.084;2023-02-07T11:25:29;9.40;49.10
37560;DHT22;23398;50.928;7.084;2023-02-07T11:27:56;9.20;49.10
37560;DHT22;23398;50.928;7.084;2023-02-07T11:30:22;9.10;49.10
37560;DHT22;23398;50.928;7.084;2023-02-07T11:32:58;8.90;49.50
37560;DHT22;23398;50.928;7.084;2023-02-07T11:35:25;8.80;49.40
37560;DHT22;23398;50.928;7.084;2023-02-07T11:38:00;8.70;49.50
37560;DHT22;23398;50.928;7.084;2023-02-07T11:40:28;8.60;49.20
37560;DHT22;23398;50.928;7.084;2023-02-07T11:43:01;8.60;49.90
37560;DHT22;23398;50.928;7.084;2023-02-07T11:45:31;8.50;50.00
37560;DHT22;23398;50.928;7.084;2023-02-07T11:47:59;8.40;50.20
37560;DHT22;23398;50.928;7.084;2023-02-07T11:50:52;8.40;50.20
37560;DHT22;23398;50.928;7.084;2023-02-07T11:53:22;8.30;50.40
37560;DHT22;23398;50.928;7.084;2023-02-07T11:55:50;8.30;50.90
37560;DHT22;23398;50.928;7.084;2023-02-07T11:58:27;8.30;51.10
37560;DHT22;23398;50.928;7.084;2023-02-07T12:00:54;8.30;51.70
37560;DHT22;23398;50.928;7.084;2023-02-07T12:05:51;8.30;51.50
37560;DHT22;23398;50.928;7.084;2023-02-07T12:08:20;8.30;51.90
37560;DHT22;23398;50.928;7.084;2023-02-07T12:13:43;8.30;50.80
37560;DHT22;23398;50.928;7.084;2023-02-07T12:21:40;8.30;51.50
37560;DHT22;23398;50.928;7.084;2023-02-07T12:24:46;8.30;52.20
37560;DHT22;23398;50.928;7.084;2023-02-07T12:27:16;8.30;51.60
37560;DHT22;23398;50.928;7.084;2023-02-07T12:30:02;8.40;51.90
37560;DHT22;23398;50.928;7.084;2023-02-07T12:32:52;8.30;51.50
37560;DHT22;23398;50.928;7.084;2023-02-07T12:35:45;8.40;52.20
37560;DHT22;23398;50.928;7.084;2023-02-07T12:40:55;8.40;52.70
37560;DHT22;23398;50.928;7.084;2023-02-07T12:43:26;8.40;52.00
37560;DHT22;23398;50.928;7.084;2023-02-07T12:46:05;8.50;52.40
37560;DHT22;23398;50.928;7.084;2023-02-07T12:51:43;8.50;52.20
37560;DHT22;23398;50.928;7.084;2023-02-07T12:54:34;8.50;52.30
37560;DHT22;23398;50.928;7.084;2023-02-07T12:57:30;8.50;52.00
37560;DHT22;23398;50.928;7.084;2023-02-07T13:00:27;8.60;51.80
37560;DHT22;23398;50.928;7.084;2023-02-07T13:03:29;8.60;51.60
37560;DHT22;23398;50.928;7.084;2023-02-07T13:08:44;8.70;51.90
37560;DHT22;23398;50.928;7.084;2023-02-07T13:11:26;8.70;51.40
37560;DHT22;23398;50.928;7.084;2023-02-07T13:14:11;8.70;51.00
37560;DHT22;23398;50.928;7.084;2023-02-07T13:19:51;8.80;50.90
37560;DHT22;23398;50.928;7.084;2023-02-07T13:22:52;8.80;50.80
37560;DHT22;23398;50.928;7.084;2023-02-07T13:25:22;8.80;51.00
37560;DHT22;23398;50.928;7.084;2023-02-07T13:27:51;8.90;51.40
37560;DHT22;23398;50.928;7.084;2023-02-07T13:30:20;8.90;51.40
37560;DHT22;23398;50.928;7.084;2023-02-07T13:32:47;8.90;51.00
37560;DHT22;23398;50.928;7.084;2023-02-07T13:35:18;9.00;51.20
37560;DHT22;23398;50.928;7.084;2023-02-07T13:40:54;9.10;50.60
37560;DHT22;23398;50.928;7.084;2023-02-07T13:46:35;9.20;51.10
37560;DHT22;23398;50.928;7.084;2023-02-07T13:54:37;9.30;50.50
37560;DHT22;23398;50.928;7.084;2023-02-07T13:57:22;9.30;49.70
37560;DHT22;23398;50.928;7.084;2023-02-07T14:00:23;9.30;49.50
37560;DHT22;23398;50.928;7.084;2023-02-07T14:02:59;9.40;49.80
37560;DHT22;23398;50.928;7.084;2023-02-07T14:05:34;9.40;49.40
37560;DHT22;23398;50.928;7.084;2023-02-07T14:10:55;9.50;48.80
37560;DHT22;23398;50.928;7.084;2023-02-07T14:13:34;9.50;48.90
37560;DHT22;23398;50.928;7.084;2023-02-07T14:16:09;9.50;49.30
37560;DHT22;23398;50.928;7.084;2023-02-07T14:18:45;9.50;48.80
37560;DHT22;23398;50.928;7.084;2023-02-07T14:29:40;9.60;47.90
37560;DHT22;23398;50.928;7.084;2023-02-07T14:37:37;9.70;47.30
37560;DHT22;23398;50.928;7.084;2023-02-07T14:40:17;9.70;48.00
37560;DHT22;23398;50.928;7.084;2023-02-07T14:51:11;9.70;47.20
37560;DHT22;23398;50.928;7.084;2023-02-07T14:53:39;9.70;47.40
37560;DHT22;23398;50.928;7.084;2023-02-07T14:56:06;9.70;47.60
37560;DHT22;23398;50.928;7.084;2023-02-07T14:58:41;9.70;47.70
37560;DHT22;23398;50.928;7.084;2023-02-07T15:01:11;9.70;47.10
37560;DHT22;23398;50.928;7.084;2023-02-07T15:03:37;9.70;46.70
37560;DHT22;23398;50.928;7.084;2023-02-07T15:06:15;9.70;46.60
37560;DHT22;23398;50.928;7.084;2023-02-07T15:08:57;9.70;46.50
37560;DHT22;23398;50.928;7.084;2023-02-07T15:11:24;9.70;46.10
37560;DHT22;23398;50.928;7.084;2023-02-07T15:13:53;9.70;46.40
37560;DHT22;23398;50.928;7.084;2023-02-07T15:21:38;9.70;45.80
37560;DHT22;23398;50.928;7.084;2023-02-07T15:26:37;9.70;45.60
37560;DHT22;23398;50.928;7.084;2023-02-07T15:29:05;9.70;45.00
37560;DHT22;23398;50.928;7.084;2023-02-07T15:31:40;9.60;45.00
37560;DHT22;23398;50.928;7.084;2023-02-07T15:34:13;9.70;45.00
37560;DHT22;23398;50.928;7.084;2023-02-07T15:36:41;9.60;44.90
37560;DHT22;23398;50.928;7.084;2023-02-07T15:39:22;9.60;44.80
37560;DHT22;23398;50.928;7.084;2023-02-07T15:41:53;9.60;44.60
37560;DHT22;23398;50.928;7.084;2023-02-07T15:44:25;9.50;45.00
37560;DHT22;23398;50.928;7.084;2023-02-07T15:49:37;9.50;44.90
37560;DHT22;23398;50.928;7.084;2023-02-07T15:52:33;9.40;44.30
37560;DHT22;23398;50.928;7.084;2023-02-07T15:55:02;9.40;44.30
37560;DHT22;23398;50.928;7.084;2023-02-07T15:57:33;9.30;44.80
37560;DHT22;23398;50.928;7.084;2023-02-07T16:00:03;9.30;44.70
37560;DHT22;23398;50.928;7.084;2023-02-07T16:02:31;9.20;44.70
37560;DHT22;23398;50.928;7.084;2023-02-07T16:05:11;9.10;44.60
37560;DHT22;23398;50.928;7.084;2023-02-07T16:07:37;9.10;44.20
37560;DHT22;23398;50.928;7.084;2023-02-07T16:10:37;9.00;44.70
37560;DHT22;23398;50.928;7.084;2023-02-07T16:13:17;8.90;44.60
37560;DHT22;23398;50.928;7.084;2023-02-07T16:15:55;8.90;44.60
37560;DHT22;23398;50.928;7.084;2023-02-07T16:18:37;8.80;44.50
37560;DHT22;23398;50.928;7.084;2023-02-07T16:21:12;8.70;44.40
37560;DHT22;23398;50.928;7.084;2023-02-07T16:23:39;8.60;44.60
37560;DHT22;23398;50.928;7.084;2023-02-07T16:26:05;8.60;45.20
37560;DHT22;23398;50.928;7.084;2023-02-07T16:28:31;8.30;46.40
37560;DHT22;23398;50.928;7.084;2023-02-07T16:30:57;8.40;47.90
37560;DHT22;23398;50.928;7.084;2023-02-07T16:33:23;8.30;48.10
37560;DHT22;23398;50.928;7.084;2023-02-07T16:35:50;8.20;48.20
37560;DHT22;23398;50.928;7.084;2023-02-07T16:38:15;8.00;48.20
37560;DHT22;23398;50.928;7.084;2023-02-07T16:40:41;7.90;48.30
37560;DHT22;23398;50.928;7.084;2023-02-07T16:43:07;7.80;48.60
37560;DHT22;23398;50.928;7.084;2023-02-07T16:45:33;7.70;49.10
37560;DHT22;23398;50.928;7.084;2023-02-07T16:48:01;7.50;49.40
37560;DHT22;23398;50.928;7.084;2023-02-07T16:50:29;7.40;49.70
37560;DHT22;23398;50.928;7.084;2023-02-07T16:52:56;7.20;50.20
37560;DHT22;23398;50.928;7.084;2023-02-07T16:55:24;7.10;50.70
37560;DHT22;23398;50.928;7.084;2023-02-07T16:57:51;6.90;51.10
37560;DHT22;23398;50.928;7.084;2023-02-07T17:00:21;6.80;51.60
37560;DHT22;23398;50.928;7.084;2023-02-07T17:02:48;6.60;51.80
37560;DHT22;23398;50.928;7.084;2023-02-07T17:05:18;6.30;50.70
37560;DHT22;23398;50.928;7.084;2023-02-07T17:07:44;6.30;51.20
37560;DHT22;23398;50.928;7.084;2023-02-07T17:10:28;6.10;51.50
37560;DHT22;23398;50.928;7.084;2023-02-07T17:12:55;5.90;52.30
37560;DHT22;23398;50.928;7.084;2023-02-07T17:15:21;5.80;52.40
37560;DHT22;23398;50.928;7.084;2023-02-07T17:17:46;5.60;52.50
37560;DHT22;23398;50.928;7.084;2023-02-07T17:20:27;5.50;52.60
37560;DHT22;23398;50.928;7.084;2023-02-07T17:22:55;5.30;52.80
37560;DHT22;23398;50.928;7.084;2023-02-07T17:25:22;5.10;52.80
37560;DHT22;23398;50.928;7.084;2023-02-07T17:27:48;4.90;53.00
37560;DHT22;23398;50.928;7.084;2023-02-07T17:30:16;4.80;53.30
37560;DHT22;23398;50.928;7.084;2023-02-07T17:32:42;4.60;53.50
37560;DHT22;23398;50.928;7.084;2023-02-07T17:35:08;4.50;53.80
37560;DHT22;23398;50.928;7.084;2023-02-07T17:37:33;4.30;53.90
37560;DHT22;23398;50.928;7.084;2023-02-07T17:39:59;4.20;53.90
37560;DHT22;23398;50.928;7.084;2023-02-07T17:42:24;4.00;53.90
37560;DHT22;23398;50.928;7.084;2023-02-07T17:44:50;3.90;54.20
37560;DHT22;23398;50.928;7.084;2023-02-07T17:47:16;3.80;55.00
37560;DHT22;23398;50.928;7.084;2023-02-07T17:49:41;3.70;54.50
37560;DHT22;23398;50.928;7.084;2023-02-07T17:52:07;3.50;54.50
37560;DHT22;23398;50.928;7.084;2023-02-07T17:54:38;3.40;54.60
37560;DHT22;23398;50.928;7.084;2023-02-07T17:57:09;3.30;54.50
37560;DHT22;23398;50.928;7.084;2023-02-07T17:59:36;3.30;54.20
37560;DHT22;23398;50.928;7.084;2023-02-07T18:02:02;3.10;54.20
37560;DHT22;23398;50.928;7.084;2023-02-07T18:04:28;3.10;54.60
37560;DHT22;23398;50.928;7.084;2023-02-07T18:06:54;3.00;54.80
37560;DHT22;23398;50.928;7.084;2023-02-07T18:09:20;3.00;54.90
37560;DHT22;23398;50.928;7.084;2023-02-07T18:11:46;2.90;54.70